Mar Lin, Pennsylvania
Current Conditions -  °F | °C
As of 3:58 PM on Friday 24 Oct 2014 (Local Time) from KMUI Reporting Station
Clear Clear  
Wind Chill: 66°   Ceiling: Unl
Heat Index: 66°   Visibility: 10mi
Dew Point: 35°   Wind: 10mph
Humidity: 32%   Direction: 300°WNW
Pressure: 29.86"   Gusts: 21mph
Location:  40.68°N, 76.24°W
Report Text: KMUI 241958Z AUTO 30009G18KT 10SM CLR 19/02 A2986 RMK AO2 SLP113 T01890016 $
Loading
Personal Weather Stations






























Interactive Weather Map
Tropical Storm Tracking
New forecast layout! Learn more

10-Day Weather Forecast

Advertisements
Track Severe Weather on mobile